sensor_id;sensor_type;location;lat;lon;timestamp;P1;durP1;ratioP1;P2;durP2;ratioP2
34767;SDS011;21755;43.608;1.236;2024-02-28T00:00:07;11.55;;;2.53;;
34767;SDS011;21755;43.608;1.236;2024-02-28T00:02:35;11.80;;;2.40;;
34767;SDS011;21755;43.608;1.236;2024-02-28T00:05:02;10.85;;;2.15;;
34767;SDS011;21755;43.608;1.236;2024-02-28T00:07:27;6.57;;;2.10;;
34767;SDS011;21755;43.608;1.236;2024-02-28T00:09:55;13.80;;;3.20;;
34767;SDS011;21755;43.608;1.236;2024-02-28T00:12:25;8.75;;;2.40;;
34767;SDS011;21755;43.608;1.236;2024-02-28T00:14:51;13.18;;;2.55;;
34767;SDS011;21755;43.608;1.236;2024-02-28T00:17:17;12.85;;;3.17;;
34767;SDS011;21755;43.608;1.236;2024-02-28T00:19:43;5.82;;;2.22;;
34767;SDS011;21755;43.608;1.236;2024-02-28T00:22:09;13.38;;;2.97;;
34767;SDS011;21755;43.608;1.236;2024-02-28T00:24:35;14.07;;;2.58;;
34767;SDS011;21755;43.608;1.236;2024-02-28T00:27:01;12.32;;;2.40;;
34767;SDS011;21755;43.608;1.236;2024-02-28T00:29:26;5.28;;;2.25;;
34767;SDS011;21755;43.608;1.236;2024-02-28T00:31:52;9.90;;;2.63;;
34767;SDS011;21755;43.608;1.236;2024-02-28T00:34:19;7.43;;;2.20;;
34767;SDS011;21755;43.608;1.236;2024-02-28T00:36:45;6.55;;;2.33;;
34767;SDS011;21755;43.608;1.236;2024-02-28T00:39:11;5.85;;;2.45;;
34767;SDS011;21755;43.608;1.236;2024-02-28T00:41:37;6.82;;;2.40;;
34767;SDS011;21755;43.608;1.236;2024-02-28T00:48:14;12.88;;;2.22;;
34767;SDS011;21755;43.608;1.236;2024-02-28T00:50:41;10.23;;;2.33;;
34767;SDS011;21755;43.608;1.236;2024-02-28T00:53:06;8.70;;;2.30;;
34767;SDS011;21755;43.608;1.236;2024-02-28T00:55:32;10.18;;;3.15;;
34767;SDS011;21755;43.608;1.236;2024-02-28T00:57:58;10.23;;;2.80;;
34767;SDS011;21755;43.608;1.236;2024-02-28T01:00:24;7.43;;;2.00;;
34767;SDS011;21755;43.608;1.236;2024-02-28T01:02:50;11.35;;;2.45;;
34767;SDS011;21755;43.608;1.236;2024-02-28T01:05:16;7.97;;;2.28;;
34767;SDS011;21755;43.608;1.236;2024-02-28T01:07:42;10.23;;;3.22;;
34767;SDS011;21755;43.608;1.236;2024-02-28T01:10:07;9.50;;;2.70;;
34767;SDS011;21755;43.608;1.236;2024-02-28T01:12:35;6.75;;;2.25;;
34767;SDS011;21755;43.608;1.236;2024-02-28T01:15:01;11.48;;;2.45;;
34767;SDS011;21755;43.608;1.236;2024-02-28T01:17:27;9.50;;;2.38;;
34767;SDS011;21755;43.608;1.236;2024-02-28T01:19:52;8.38;;;2.38;;
34767;SDS011;21755;43.608;1.236;2024-02-28T01:22:18;13.10;;;2.92;;
34767;SDS011;21755;43.608;1.236;2024-02-28T01:24:44;6.13;;;2.38;;
34767;SDS011;21755;43.608;1.236;2024-02-28T01:27:10;5.47;;;2.17;;
34767;SDS011;21755;43.608;1.236;2024-02-28T01:29:36;15.18;;;2.60;;
34767;SDS011;21755;43.608;1.236;2024-02-28T01:32:02;7.70;;;1.90;;
34767;SDS011;21755;43.608;1.236;2024-02-28T01:34:28;9.50;;;2.00;;
34767;SDS011;21755;43.608;1.236;2024-02-28T01:36:53;13.00;;;2.78;;
34767;SDS011;21755;43.608;1.236;2024-02-28T01:39:19;10.30;;;2.90;;
34767;SDS011;21755;43.608;1.236;2024-02-28T01:41:54;8.23;;;2.42;;
34767;SDS011;21755;43.608;1.236;2024-02-28T01:44:20;7.18;;;1.85;;
34767;SDS011;21755;43.608;1.236;2024-02-28T01:46:46;10.40;;;2.03;;
34767;SDS011;21755;43.608;1.236;2024-02-28T01:49:13;20.00;;;3.58;;
34767;SDS011;21755;43.608;1.236;2024-02-28T01:51:40;8.43;;;2.17;;
34767;SDS011;21755;43.608;1.236;2024-02-28T01:54:07;6.22;;;1.70;;
34767;SDS011;21755;43.608;1.236;2024-02-28T01:56:33;12.18;;;2.15;;
34767;SDS011;21755;43.608;1.236;2024-02-28T01:58:59;7.43;;;1.80;;
34767;SDS011;21755;43.608;1.236;2024-02-28T02:01:26;7.40;;;1.85;;
34767;SDS011;21755;43.608;1.236;2024-02-28T02:03:53;13.68;;;2.30;;
34767;SDS011;21755;43.608;1.236;2024-02-28T02:06:19;11.13;;;1.92;;
34767;SDS011;21755;43.608;1.236;2024-02-28T02:08:46;6.65;;;1.65;;
34767;SDS011;21755;43.608;1.236;2024-02-28T02:11:13;9.10;;;2.10;;
34767;SDS011;21755;43.608;1.236;2024-02-28T02:13:49;5.68;;;1.85;;
34767;SDS011;21755;43.608;1.236;2024-02-28T02:16:16;8.98;;;2.00;;
34767;SDS011;21755;43.608;1.236;2024-02-28T02:18:43;5.97;;;1.75;;
34767;SDS011;21755;43.608;1.236;2024-02-28T02:21:11;10.60;;;2.22;;
34767;SDS011;21755;43.608;1.236;2024-02-28T02:23:40;9.68;;;2.20;;
34767;SDS011;21755;43.608;1.236;2024-02-28T02:26:07;10.35;;;2.13;;
34767;SDS011;21755;43.608;1.236;2024-02-28T02:28:33;9.75;;;2.30;;
34767;SDS011;21755;43.608;1.236;2024-02-28T02:30:59;8.10;;;2.15;;
34767;SDS011;21755;43.608;1.236;2024-02-28T02:33:24;13.23;;;2.17;;
34767;SDS011;21755;43.608;1.236;2024-02-28T02:35:51;7.28;;;1.88;;
34767;SDS011;21755;43.608;1.236;2024-02-28T02:38:18;8.73;;;1.83;;
34767;SDS011;21755;43.608;1.236;2024-02-28T02:40:53;8.75;;;1.77;;
34767;SDS011;21755;43.608;1.236;2024-02-28T02:43:19;7.05;;;1.67;;
34767;SDS011;21755;43.608;1.236;2024-02-28T02:45:45;6.75;;;2.10;;
34767;SDS011;21755;43.608;1.236;2024-02-28T02:48:11;9.30;;;1.92;;
34767;SDS011;21755;43.608;1.236;2024-02-28T02:50:37;8.18;;;1.80;;
34767;SDS011;21755;43.608;1.236;2024-02-28T02:53:03;7.85;;;1.80;;
34767;SDS011;21755;43.608;1.236;2024-02-28T02:55:29;5.38;;;1.90;;
34767;SDS011;21755;43.608;1.236;2024-02-28T02:57:55;9.93;;;2.05;;
34767;SDS011;21755;43.608;1.236;2024-02-28T03:00:22;18.25;;;1.90;;
34767;SDS011;21755;43.608;1.236;2024-02-28T03:02:47;9.60;;;1.80;;
34767;SDS011;21755;43.608;1.236;2024-02-28T03:05:13;9.43;;;2.15;;
34767;SDS011;21755;43.608;1.236;2024-02-28T03:07:39;10.32;;;1.98;;
34767;SDS011;21755;43.608;1.236;2024-02-28T03:10:05;5.72;;;1.73;;
34767;SDS011;21755;43.608;1.236;2024-02-28T03:12:32;5.45;;;1.80;;
34767;SDS011;21755;43.608;1.236;2024-02-28T03:14:57;4.63;;;1.85;;
34767;SDS011;21755;43.608;1.236;2024-02-28T03:17:24;9.43;;;1.80;;
34767;SDS011;21755;43.608;1.236;2024-02-28T03:19:49;8.63;;;1.90;;
34767;SDS011;21755;43.608;1.236;2024-02-28T03:22:15;8.38;;;2.00;;
34767;SDS011;21755;43.608;1.236;2024-02-28T03:24:41;8.95;;;1.70;;
34767;SDS011;21755;43.608;1.236;2024-02-28T03:27:07;6.75;;;1.77;;
34767;SDS011;21755;43.608;1.236;2024-02-28T03:29:33;10.02;;;2.10;;
34767;SDS011;21755;43.608;1.236;2024-02-28T03:31:59;10.60;;;1.63;;
34767;SDS011;21755;43.608;1.236;2024-02-28T03:34:25;5.20;;;1.50;;
34767;SDS011;21755;43.608;1.236;2024-02-28T03:36:51;6.35;;;1.80;;
34767;SDS011;21755;43.608;1.236;2024-02-28T03:39:17;6.60;;;1.92;;
34767;SDS011;21755;43.608;1.236;2024-02-28T03:41:43;5.78;;;1.65;;
34767;SDS011;21755;43.608;1.236;2024-02-28T03:44:09;17.77;;;2.80;;
34767;SDS011;21755;43.608;1.236;2024-02-28T03:46:35;8.27;;;1.88;;
34767;SDS011;21755;43.608;1.236;2024-02-28T03:49:01;7.32;;;1.65;;
34767;SDS011;21755;43.608;1.236;2024-02-28T03:51:27;10.05;;;1.90;;
34767;SDS011;21755;43.608;1.236;2024-02-28T03:53:53;8.07;;;1.70;;
34767;SDS011;21755;43.608;1.236;2024-02-28T03:56:25;10.98;;;1.95;;
34767;SDS011;21755;43.608;1.236;2024-02-28T03:58:51;6.65;;;2.08;;
34767;SDS011;21755;43.608;1.236;2024-02-28T04:01:18;9.30;;;1.70;;
34767;SDS011;21755;43.608;1.236;2024-02-28T04:03:44;3.92;;;1.48;;
34767;SDS011;21755;43.608;1.236;2024-02-28T04:06:10;3.38;;;1.38;;
34767;SDS011;21755;43.608;1.236;2024-02-28T04:08:36;9.23;;;2.03;;
34767;SDS011;21755;43.608;1.236;2024-02-28T04:11:02;7.60;;;1.50;;
34767;SDS011;21755;43.608;1.236;2024-02-28T04:13:28;6.45;;;1.77;;
34767;SDS011;21755;43.608;1.236;2024-02-28T04:15:54;7.28;;;1.75;;
34767;SDS011;21755;43.608;1.236;2024-02-28T04:18:20;7.45;;;1.48;;
34767;SDS011;21755;43.608;1.236;2024-02-28T04:20:46;10.07;;;1.90;;
34767;SDS011;21755;43.608;1.236;2024-02-28T04:23:12;8.60;;;1.45;;
34767;SDS011;21755;43.608;1.236;2024-02-28T04:25:38;10.77;;;2.00;;
34767;SDS011;21755;43.608;1.236;2024-02-28T04:28:06;7.85;;;1.63;;
34767;SDS011;21755;43.608;1.236;2024-02-28T04:30:35;9.95;;;1.83;;
34767;SDS011;21755;43.608;1.236;2024-02-28T04:33:01;12.18;;;1.90;;
34767;SDS011;21755;43.608;1.236;2024-02-28T04:35:27;8.38;;;1.92;;
34767;SDS011;21755;43.608;1.236;2024-02-28T04:37:53;7.38;;;1.70;;
34767;SDS011;21755;43.608;1.236;2024-02-28T04:40:19;6.93;;;2.17;;
34767;SDS011;21755;43.608;1.236;2024-02-28T04:42:45;7.20;;;1.60;;
34767;SDS011;21755;43.608;1.236;2024-02-28T04:45:11;5.32;;;2.05;;
34767;SDS011;21755;43.608;1.236;2024-02-28T04:47:37;5.18;;;1.50;;
34767;SDS011;21755;43.608;1.236;2024-02-28T04:50:03;9.68;;;1.65;;
34767;SDS011;21755;43.608;1.236;2024-02-28T04:52:31;5.13;;;1.50;;
34767;SDS011;21755;43.608;1.236;2024-02-28T04:54:57;7.93;;;1.40;;
34767;SDS011;21755;43.608;1.236;2024-02-28T04:57:23;7.13;;;1.80;;
34767;SDS011;21755;43.608;1.236;2024-02-28T04:59:49;6.50;;;1.60;;
34767;SDS011;21755;43.608;1.236;2024-02-28T05:02:15;6.88;;;1.48;;
34767;SDS011;21755;43.608;1.236;2024-02-28T05:04:42;10.15;;;1.63;;
34767;SDS011;21755;43.608;1.236;2024-02-28T05:07:08;7.93;;;1.63;;
34767;SDS011;21755;43.608;1.236;2024-02-28T05:09:34;7.15;;;2.03;;
34767;SDS011;21755;43.608;1.236;2024-02-28T05:12:00;7.05;;;1.60;;
34767;SDS011;21755;43.608;1.236;2024-02-28T05:14:26;6.72;;;1.63;;
34767;SDS011;21755;43.608;1.236;2024-02-28T05:16:52;10.50;;;1.83;;
34767;SDS011;21755;43.608;1.236;2024-02-28T05:19:18;6.75;;;1.40;;
34767;SDS011;21755;43.608;1.236;2024-02-28T05:21:44;11.85;;;1.55;;
34767;SDS011;21755;43.608;1.236;2024-02-28T05:24:11;4.45;;;1.55;;
34767;SDS011;21755;43.608;1.236;2024-02-28T05:26:37;2.25;;;1.20;;
34767;SDS011;21755;43.608;1.236;2024-02-28T05:29:04;6.97;;;2.00;;
34767;SDS011;21755;43.608;1.236;2024-02-28T05:31:31;3.20;;;1.35;;
34767;SDS011;21755;43.608;1.236;2024-02-28T05:33:58;12.05;;;1.85;;
34767;SDS011;21755;43.608;1.236;2024-02-28T05:36:28;4.25;;;1.48;;
34767;SDS011;21755;43.608;1.236;2024-02-28T05:38:55;9.07;;;1.70;;
34767;SDS011;21755;43.608;1.236;2024-02-28T05:41:23;6.07;;;1.60;;
34767;SDS011;21755;43.608;1.236;2024-02-28T05:43:49;4.57;;;1.48;;
34767;SDS011;21755;43.608;1.236;2024-02-28T05:46:15;6.78;;;1.67;;
34767;SDS011;21755;43.608;1.236;2024-02-28T05:48:43;6.70;;;1.52;;
34767;SDS011;21755;43.608;1.236;2024-02-28T05:51:10;7.53;;;1.70;;
34767;SDS011;21755;43.608;1.236;2024-02-28T05:53:36;8.57;;;2.55;;
34767;SDS011;21755;43.608;1.236;2024-02-28T05:56:03;5.20;;;1.33;;
34767;SDS011;21755;43.608;1.236;2024-02-28T05:58:30;2.75;;;1.42;;
34767;SDS011;21755;43.608;1.236;2024-02-28T06:00:56;8.23;;;1.60;;
34767;SDS011;21755;43.608;1.236;2024-02-28T06:03:22;7.78;;;1.58;;
34767;SDS011;21755;43.608;1.236;2024-02-28T06:05:48;9.45;;;1.70;;
34767;SDS011;21755;43.608;1.236;2024-02-28T06:08:14;10.88;;;1.80;;
34767;SDS011;21755;43.608;1.236;2024-02-28T06:10:40;6.82;;;1.80;;
34767;SDS011;21755;43.608;1.236;2024-02-28T06:13:11;4.80;;;1.63;;
34767;SDS011;21755;43.608;1.236;2024-02-28T06:15:38;9.30;;;2.00;;
34767;SDS011;21755;43.608;1.236;2024-02-28T06:18:04;5.07;;;1.83;;
34767;SDS011;21755;43.608;1.236;2024-02-28T06:20:30;9.50;;;1.88;;
34767;SDS011;21755;43.608;1.236;2024-02-28T06:22:56;10.60;;;2.28;;
34767;SDS011;21755;43.608;1.236;2024-02-28T06:25:22;9.68;;;2.92;;
34767;SDS011;21755;43.608;1.236;2024-02-28T06:27:49;12.30;;;2.20;;
34767;SDS011;21755;43.608;1.236;2024-02-28T06:30:16;7.72;;;1.98;;
34767;SDS011;21755;43.608;1.236;2024-02-28T06:32:42;8.43;;;1.98;;
34767;SDS011;21755;43.608;1.236;2024-02-28T06:35:08;13.25;;;2.72;;
34767;SDS011;21755;43.608;1.236;2024-02-28T06:37:34;5.57;;;1.80;;
34767;SDS011;21755;43.608;1.236;2024-02-28T06:40:01;12.88;;;2.45;;
34767;SDS011;21755;43.608;1.236;2024-02-28T06:42:29;7.20;;;1.90;;
34767;SDS011;21755;43.608;1.236;2024-02-28T06:44:55;6.10;;;2.05;;
34767;SDS011;21755;43.608;1.236;2024-02-28T06:47:21;7.68;;;3.25;;
34767;SDS011;21755;43.608;1.236;2024-02-28T06:49:47;13.40;;;2.50;;
34767;SDS011;21755;43.608;1.236;2024-02-28T06:52:14;6.13;;;2.22;;
34767;SDS011;21755;43.608;1.236;2024-02-28T06:54:39;15.13;;;4.13;;
34767;SDS011;21755;43.608;1.236;2024-02-28T06:57:05;8.98;;;2.72;;
34767;SDS011;21755;43.608;1.236;2024-02-28T06:59:31;5.60;;;2.60;;
34767;SDS011;21755;43.608;1.236;2024-02-28T07:01:57;8.32;;;3.05;;
34767;SDS011;21755;43.608;1.236;2024-02-28T07:04:24;8.57;;;2.58;;
34767;SDS011;21755;43.608;1.236;2024-02-28T07:06:49;9.65;;;1.77;;
34767;SDS011;21755;43.608;1.236;2024-02-28T07:09:15;12.82;;;2.00;;
34767;SDS011;21755;43.608;1.236;2024-02-28T07:11:41;5.50;;;1.95;;
34767;SDS011;21755;43.608;1.236;2024-02-28T07:14:07;6.35;;;1.98;;
34767;SDS011;21755;43.608;1.236;2024-02-28T07:16:35;9.98;;;1.90;;
34767;SDS011;21755;43.608;1.236;2024-02-28T07:19:06;8.40;;;1.67;;
34767;SDS011;21755;43.608;1.236;2024-02-28T07:21:33;11.02;;;1.90;;
34767;SDS011;21755;43.608;1.236;2024-02-28T07:24:01;7.80;;;2.13;;
34767;SDS011;21755;43.608;1.236;2024-02-28T07:26:30;10.80;;;2.08;;
34767;SDS011;21755;43.608;1.236;2024-02-28T07:28:55;11.45;;;2.63;;
34767;SDS011;21755;43.608;1.236;2024-02-28T07:31:21;7.38;;;2.35;;
34767;SDS011;21755;43.608;1.236;2024-02-28T07:33:47;15.13;;;2.67;;
34767;SDS011;21755;43.608;1.236;2024-02-28T07:36:13;11.60;;;3.88;;
34767;SDS011;21755;43.608;1.236;2024-02-28T07:38:42;8.82;;;2.47;;
34767;SDS011;21755;43.608;1.236;2024-02-28T07:41:08;10.60;;;1.83;;
34767;SDS011;21755;43.608;1.236;2024-02-28T07:43:34;5.80;;;2.17;;
34767;SDS011;21755;43.608;1.236;2024-02-28T07:46:09;8.15;;;2.50;;
34767;SDS011;21755;43.608;1.236;2024-02-28T07:48:36;11.65;;;2.15;;
34767;SDS011;21755;43.608;1.236;2024-02-28T07:51:08;8.68;;;2.30;;
34767;SDS011;21755;43.608;1.236;2024-02-28T07:53:34;7.83;;;2.37;;
34767;SDS011;21755;43.608;1.236;2024-02-28T07:56:00;8.85;;;2.50;;
34767;SDS011;21755;43.608;1.236;2024-02-28T07:58:26;11.32;;;2.78;;
34767;SDS011;21755;43.608;1.236;2024-02-28T08:00:52;11.10;;;2.20;;
34767;SDS011;21755;43.608;1.236;2024-02-28T08:03:18;9.68;;;2.17;;
34767;SDS011;21755;43.608;1.236;2024-02-28T08:05:44;11.48;;;1.83;;
34767;SDS011;21755;43.608;1.236;2024-02-28T08:08:11;8.00;;;2.28;;
34767;SDS011;21755;43.608;1.236;2024-02-28T08:10:37;11.45;;;2.13;;
34767;SDS011;21755;43.608;1.236;2024-02-28T08:13:03;7.63;;;2.28;;
34767;SDS011;21755;43.608;1.236;2024-02-28T08:15:29;9.40;;;2.47;;
34767;SDS011;21755;43.608;1.236;2024-02-28T08:17:56;7.95;;;2.22;;
34767;SDS011;21755;43.608;1.236;2024-02-28T08:20:22;14.40;;;1.92;;
34767;SDS011;21755;43.608;1.236;2024-02-28T08:22:48;8.27;;;1.90;;
34767;SDS011;21755;43.608;1.236;2024-02-28T08:25:14;7.45;;;2.42;;
34767;SDS011;21755;43.608;1.236;2024-02-28T08:27:41;7.85;;;2.22;;
34767;SDS011;21755;43.608;1.236;2024-02-28T08:30:07;11.90;;;2.95;;
34767;SDS011;21755;43.608;1.236;2024-02-28T08:32:33;17.77;;;5.00;;
34767;SDS011;21755;43.608;1.236;2024-02-28T08:34:59;17.08;;;5.13;;
34767;SDS011;21755;43.608;1.236;2024-02-28T08:37:26;15.95;;;3.60;;
34767;SDS011;21755;43.608;1.236;2024-02-28T08:39:54;10.15;;;2.72;;
34767;SDS011;21755;43.608;1.236;2024-02-28T08:42:26;10.27;;;2.40;;
34767;SDS011;21755;43.608;1.236;2024-02-28T08:44:52;7.47;;;2.30;;
34767;SDS011;21755;43.608;1.236;2024-02-28T08:47:23;7.57;;;2.00;;
34767;SDS011;21755;43.608;1.236;2024-02-28T08:49:49;6.03;;;2.70;;
34767;SDS011;21755;43.608;1.236;2024-02-28T08:52:15;5.47;;;2.65;;
34767;SDS011;21755;43.608;1.236;2024-02-28T08:54:41;9.68;;;2.50;;
34767;SDS011;21755;43.608;1.236;2024-02-28T08:57:07;5.35;;;2.00;;
34767;SDS011;21755;43.608;1.236;2024-02-28T08:59:33;11.30;;;2.70;;
34767;SDS011;21755;43.608;1.236;2024-02-28T09:01:59;13.23;;;2.30;;
34767;SDS011;21755;43.608;1.236;2024-02-28T09:04:25;9.57;;;3.58;;
34767;SDS011;21755;43.608;1.236;2024-02-28T09:06:51;8.07;;;2.67;;
34767;SDS011;21755;43.608;1.236;2024-02-28T09:09:20;8.48;;;2.90;;
34767;SDS011;21755;43.608;1.236;2024-02-28T09:11:46;14.15;;;2.72;;
34767;SDS011;21755;43.608;1.236;2024-02-28T09:14:11;7.60;;;2.03;;
34767;SDS011;21755;43.608;1.236;2024-02-28T09:16:37;7.65;;;2.53;;
34767;SDS011;21755;43.608;1.236;2024-02-28T09:19:03;11.13;;;2.42;;
34767;SDS011;21755;43.608;1.236;2024-02-28T09:21:30;9.18;;;2.53;;
34767;SDS011;21755;43.608;1.236;2024-02-28T09:23:56;5.43;;;2.40;;
34767;SDS011;21755;43.608;1.236;2024-02-28T09:26:22;12.00;;;2.65;;
34767;SDS011;21755;43.608;1.236;2024-02-28T09:28:48;11.48;;;4.72;;
34767;SDS011;21755;43.608;1.236;2024-02-28T09:31:14;8.25;;;2.33;;
34767;SDS011;21755;43.608;1.236;2024-02-28T09:33:42;8.25;;;1.92;;
34767;SDS011;21755;43.608;1.236;2024-02-28T09:36:11;7.03;;;1.92;;
34767;SDS011;21755;43.608;1.236;2024-02-28T09:38:37;7.70;;;2.33;;
34767;SDS011;21755;43.608;1.236;2024-02-28T09:41:03;7.78;;;2.42;;
34767;SDS011;21755;43.608;1.236;2024-02-28T09:43:30;4.82;;;2.20;;
34767;SDS011;21755;43.608;1.236;2024-02-28T09:46:03;7.90;;;2.10;;
34767;SDS011;21755;43.608;1.236;2024-02-28T09:48:30;4.68;;;1.85;;
34767;SDS011;21755;43.608;1.236;2024-02-28T09:50:59;6.80;;;2.25;;
34767;SDS011;21755;43.608;1.236;2024-02-28T09:53:26;6.80;;;1.98;;
34767;SDS011;21755;43.608;1.236;2024-02-28T09:55:52;9.35;;;2.33;;
34767;SDS011;21755;43.608;1.236;2024-02-28T09:58:18;8.18;;;2.22;;
34767;SDS011;21755;43.608;1.236;2024-02-28T10:00:47;4.25;;;1.45;;
34767;SDS011;21755;43.608;1.236;2024-02-28T10:03:16;4.43;;;1.30;;
34767;SDS011;21755;43.608;1.236;2024-02-28T10:05:46;9.40;;;1.63;;
34767;SDS011;21755;43.608;1.236;2024-02-28T10:08:12;5.15;;;1.55;;
34767;SDS011;21755;43.608;1.236;2024-02-28T10:10:48;3.95;;;1.50;;
34767;SDS011;21755;43.608;1.236;2024-02-28T10:13:17;6.22;;;1.67;;
34767;SDS011;21755;43.608;1.236;2024-02-28T10:15:44;8.40;;;1.80;;
34767;SDS011;21755;43.608;1.236;2024-02-28T10:18:10;4.85;;;1.45;;
34767;SDS011;21755;43.608;1.236;2024-02-28T10:20:36;5.28;;;1.90;;
34767;SDS011;21755;43.608;1.236;2024-02-28T10:23:05;4.72;;;1.38;;
34767;SDS011;21755;43.608;1.236;2024-02-28T10:25:41;9.48;;;2.38;;
34767;SDS011;21755;43.608;1.236;2024-02-28T10:28:11;7.43;;;1.90;;
34767;SDS011;21755;43.608;1.236;2024-02-28T10:30:43;8.98;;;1.75;;
34767;SDS011;21755;43.608;1.236;2024-02-28T10:33:15;4.90;;;2.03;;
34767;SDS011;21755;43.608;1.236;2024-02-28T10:35:42;5.55;;;1.77;;
34767;SDS011;21755;43.608;1.236;2024-02-28T10:38:11;9.23;;;1.92;;
34767;SDS011;21755;43.608;1.236;2024-02-28T10:40:41;5.05;;;1.45;;
34767;SDS011;21755;43.608;1.236;2024-02-28T10:43:10;8.15;;;1.73;;
34767;SDS011;21755;43.608;1.236;2024-02-28T10:45:36;3.38;;;1.27;;
34767;SDS011;21755;43.608;1.236;2024-02-28T10:48:04;3.80;;;1.08;;
34767;SDS011;21755;43.608;1.236;2024-02-28T10:50:30;8.65;;;1.67;;
34767;SDS011;21755;43.608;1.236;2024-02-28T10:53:03;4.85;;;1.35;;
34767;SDS011;21755;43.608;1.236;2024-02-28T10:55:33;7.97;;;1.40;;
34767;SDS011;21755;43.608;1.236;2024-02-28T10:58:03;5.03;;;1.25;;
34767;SDS011;21755;43.608;1.236;2024-02-28T11:00:32;5.00;;;1.35;;
34767;SDS011;21755;43.608;1.236;2024-02-28T11:03:13;7.13;;;1.33;;
34767;SDS011;21755;43.608;1.236;2024-02-28T11:05:42;5.07;;;1.27;;
34767;SDS011;21755;43.608;1.236;2024-02-28T11:08:21;13.93;;;1.80;;
34767;SDS011;21755;43.608;1.236;2024-02-28T11:10:54;5.43;;;1.40;;
34767;SDS011;21755;43.608;1.236;2024-02-28T11:15:47;5.50;;;1.52;;
34767;SDS011;21755;43.608;1.236;2024-02-28T11:18:13;10.10;;;1.50;;
34767;SDS011;21755;43.608;1.236;2024-02-28T11:20:39;8.35;;;1.80;;
34767;SDS011;21755;43.608;1.236;2024-02-28T11:23:09;6.28;;;1.15;;
34767;SDS011;21755;43.608;1.236;2024-02-28T11:25:35;5.50;;;1.15;;
34767;SDS011;21755;43.608;1.236;2024-02-28T11:28:01;4.18;;;1.20;;
34767;SDS011;21755;43.608;1.236;2024-02-28T11:30:27;8.48;;;1.30;;
34767;SDS011;21755;43.608;1.236;2024-02-28T11:32:53;5.22;;;1.80;;
34767;SDS011;21755;43.608;1.236;2024-02-28T11:35:20;3.75;;;1.30;;
34767;SDS011;21755;43.608;1.236;2024-02-28T11:37:46;6.57;;;1.20;;
34767;SDS011;21755;43.608;1.236;2024-02-28T11:40:13;4.25;;;1.10;;
34767;SDS011;21755;43.608;1.236;2024-02-28T11:42:39;6.55;;;0.70;;
34767;SDS011;21755;43.608;1.236;2024-02-28T11:45:05;2.92;;;1.30;;
34767;SDS011;21755;43.608;1.236;2024-02-28T11:47:35;2.95;;;1.13;;
34767;SDS011;21755;43.608;1.236;2024-02-28T11:50:01;4.47;;;1.10;;
34767;SDS011;21755;43.608;1.236;2024-02-28T11:52:29;3.95;;;1.23;;
34767;SDS011;21755;43.608;1.236;2024-02-28T11:54:55;4.63;;;0.95;;
34767;SDS011;21755;43.608;1.236;2024-02-28T11:57:21;2.30;;;0.80;;
34767;SDS011;21755;43.608;1.236;2024-02-28T11:59:47;6.18;;;1.85;;
34767;SDS011;21755;43.608;1.236;2024-02-28T12:02:14;5.00;;;2.22;;
34767;SDS011;21755;43.608;1.236;2024-02-28T12:04:41;3.20;;;1.42;;
34767;SDS011;21755;43.608;1.236;2024-02-28T12:07:10;5.78;;;1.35;;
34767;SDS011;21755;43.608;1.236;2024-02-28T12:09:37;5.20;;;1.17;;
34767;SDS011;21755;43.608;1.236;2024-02-28T12:12:04;2.72;;;0.95;;
34767;SDS011;21755;43.608;1.236;2024-02-28T12:14:32;6.75;;;1.48;;
34767;SDS011;21755;43.608;1.236;2024-02-28T12:17:01;8.70;;;1.27;;
34767;SDS011;21755;43.608;1.236;2024-02-28T12:19:28;4.53;;;0.82;;
34767;SDS011;21755;43.608;1.236;2024-02-28T12:21:54;4.05;;;1.05;;
34767;SDS011;21755;43.608;1.236;2024-02-28T12:24:20;2.45;;;0.75;;
34767;SDS011;21755;43.608;1.236;2024-02-28T12:26:46;8.32;;;1.42;;
34767;SDS011;21755;43.608;1.236;2024-02-28T12:29:12;3.08;;;0.75;;
34767;SDS011;21755;43.608;1.236;2024-02-28T12:31:38;7.30;;;0.80;;
34767;SDS011;21755;43.608;1.236;2024-02-28T12:34:04;4.20;;;0.82;;
34767;SDS011;21755;43.608;1.236;2024-02-28T12:36:30;3.53;;;0.90;;
34767;SDS011;21755;43.608;1.236;2024-02-28T12:38:57;5.15;;;1.75;;
34767;SDS011;21755;43.608;1.236;2024-02-28T12:41:25;3.63;;;0.75;;
34767;SDS011;21755;43.608;1.236;2024-02-28T12:43:52;1.77;;;1.00;;
34767;SDS011;21755;43.608;1.236;2024-02-28T12:46:17;1.85;;;0.60;;
34767;SDS011;21755;43.608;1.236;2024-02-28T12:48:43;2.85;;;0.90;;
34767;SDS011;21755;43.608;1.236;2024-02-28T12:51:20;9.55;;;1.02;;
34767;SDS011;21755;43.608;1.236;2024-02-28T12:54:00;2.17;;;0.70;;
34767;SDS011;21755;43.608;1.236;2024-02-28T12:56:26;5.47;;;0.70;;
34767;SDS011;21755;43.608;1.236;2024-02-28T12:58:52;1.77;;;0.47;;
34767;SDS011;21755;43.608;1.236;2024-02-28T13:01:18;1.55;;;0.50;;
34767;SDS011;21755;43.608;1.236;2024-02-28T13:03:44;2.20;;;0.57;;
34767;SDS011;21755;43.608;1.236;2024-02-28T13:06:10;4.00;;;0.80;;
34767;SDS011;21755;43.608;1.236;2024-02-28T13:08:36;3.13;;;0.77;;
34767;SDS011;21755;43.608;1.236;2024-02-28T13:11:02;3.38;;;0.98;;
34767;SDS011;21755;43.608;1.236;2024-02-28T13:13:28;2.03;;;0.70;;
34767;SDS011;21755;43.608;1.236;2024-02-28T13:15:54;2.85;;;0.60;;
34767;SDS011;21755;43.608;1.236;2024-02-28T13:18:20;2.85;;;0.93;;
34767;SDS011;21755;43.608;1.236;2024-02-28T13:20:46;3.70;;;0.70;;
34767;SDS011;21755;43.608;1.236;2024-02-28T13:23:12;4.97;;;1.15;;
34767;SDS011;21755;43.608;1.236;2024-02-28T13:25:38;5.13;;;1.15;;
34767;SDS011;21755;43.608;1.236;2024-02-28T13:28:04;2.97;;;0.80;;
34767;SDS011;21755;43.608;1.236;2024-02-28T13:30:30;3.55;;;0.80;;
34767;SDS011;21755;43.608;1.236;2024-02-28T13:32:56;4.38;;;1.00;;
34767;SDS011;21755;43.608;1.236;2024-02-28T13:35:22;2.45;;;0.70;;
34767;SDS011;21755;43.608;1.236;2024-02-28T13:37:47;2.92;;;1.00;;
34767;SDS011;21755;43.608;1.236;2024-02-28T13:40:13;4.35;;;1.23;;
34767;SDS011;21755;43.608;1.236;2024-02-28T13:42:39;2.42;;;0.70;;
34767;SDS011;21755;43.608;1.236;2024-02-28T13:45:06;3.38;;;0.60;;
34767;SDS011;21755;43.608;1.236;2024-02-28T13:47:33;4.68;;;0.82;;
34767;SDS011;21755;43.608;1.236;2024-02-28T13:50:00;1.02;;;0.55;;
34767;SDS011;21755;43.608;1.236;2024-02-28T13:52:26;3.65;;;0.75;;
34767;SDS011;21755;43.608;1.236;2024-02-28T13:54:52;1.38;;;0.50;;
34767;SDS011;21755;43.608;1.236;2024-02-28T13:57:19;3.78;;;0.60;;
34767;SDS011;21755;43.608;1.236;2024-02-28T13:59:45;3.92;;;0.73;;
34767;SDS011;21755;43.608;1.236;2024-02-28T14:02:14;2.53;;;0.70;;
34767;SDS011;21755;43.608;1.236;2024-02-28T14:04:40;3.28;;;0.75;;
34767;SDS011;21755;43.608;1.236;2024-02-28T14:07:08;3.55;;;0.65;;
34767;SDS011;21755;43.608;1.236;2024-02-28T14:09:34;3.38;;;0.50;;
34767;SDS011;21755;43.608;1.236;2024-02-28T14:12:00;2.05;;;0.40;;
34767;SDS011;21755;43.608;1.236;2024-02-28T14:14:26;5.78;;;0.70;;
34767;SDS011;21755;43.608;1.236;2024-02-28T14:16:52;2.45;;;0.45;;
34767;SDS011;21755;43.608;1.236;2024-02-28T14:19:18;0.88;;;0.40;;
34767;SDS011;21755;43.608;1.236;2024-02-28T14:21:44;2.38;;;0.40;;
34767;SDS011;21755;43.608;1.236;2024-02-28T14:24:10;0.90;;;0.50;;
34767;SDS011;21755;43.608;1.236;2024-02-28T14:26:36;1.98;;;0.70;;
34767;SDS011;21755;43.608;1.236;2024-02-28T14:29:02;1.30;;;0.55;;
34767;SDS011;21755;43.608;1.236;2024-02-28T14:31:30;1.33;;;0.50;;
34767;SDS011;21755;43.608;1.236;2024-02-28T14:33:56;3.10;;;0.90;;
34767;SDS011;21755;43.608;1.236;2024-02-28T14:36:22;3.35;;;0.50;;
34767;SDS011;21755;43.608;1.236;2024-02-28T14:38:50;2.50;;;1.08;;
34767;SDS011;21755;43.608;1.236;2024-02-28T14:41:16;2.17;;;0.82;;
34767;SDS011;21755;43.608;1.236;2024-02-28T14:43:45;3.38;;;0.63;;
34767;SDS011;21755;43.608;1.236;2024-02-28T14:46:11;3.75;;;0.63;;
34767;SDS011;21755;43.608;1.236;2024-02-28T14:48:37;0.77;;;0.40;;